PWSweather.com
Personal Weather Stations
Station Observations
MBORO100
Brandywood , Murfreesboro, TN 37130

Brandywood Murfreesboro, TN 37130

Lat: 35.908093, Lon: -86.31352

Elevation: 690

Station Type: Davis

Latest ConditionsUpdated 9:20:01 PM CDT Thursday, Apr 26, 2018
Currently Today's Max Today's Min Today's Average
Temperature 53.6°F12.0°C 58.9°F14.9°C 53.6°F12.0°C 56.3°F13.5°C
Dew Point 53.0°F11.7°C 56.5°F13.6°C 53.0°F11.7°C 54.8°F12.7°C
Winds Calm Calm 1.2 mph ESE1.9 kmh ESE - 0.1 mph 0.2 kmh
Wind Gusts -- 3.5 mph5.6 kmh - -
Humidity 98% 98% 86% 95%
Pressure 29.90 in1012.5 mb 29.91 in1012.9 mb 29.84 in1010.5 mb -
Precipitation - 0.19 in4.8 mm - -
Hour Temp Dew Point Humidity Winds Wind Gusts Pressure Precip Precip Rate Daily Precip Total
09:20 PM 53.6°F12.0°C 53.0°F11.7°C 98% Calm Calm -- 29.90 in1012.5 mb - 0.00 in0.0 mm 0.19 in4.8 mm
09:15 PM 53.6°F12.0°C 53.0°F11.7°C 98% Calm Calm -- 29.90 in1012.5 mb - 0.00 in0.0 mm 0.19 in4.8 mm
09:10 PM 53.6°F12.0°C 53.0°F11.7°C 98% Calm Calm -- 29.90 in1012.5 mb - 0.00 in0.0 mm 0.19 in4.8 mm
09:00 PM 53.8°F12.1°C 53.2°F11.8°C 98% Calm Calm -- 29.90 in1012.5 mb - 0.00 in0.0 mm 0.19 in4.8 mm
08:55 PM 53.9°F12.2°C 53.1°F11.7°C 97% Calm Calm -- 29.90 in1012.5 mb - 0.00 in0.0 mm 0.19 in4.8 mm
08:50 PM 53.8°F12.1°C 53.0°F11.7°C 97% Calm Calm -- 29.89 in1012.2 mb - 0.00 in0.0 mm 0.19 in4.8 mm
08:45 PM 53.9°F12.2°C 53.1°F11.7°C 97% Calm Calm -- 29.89 in1012.2 mb - 0.00 in0.0 mm 0.19 in4.8 mm
08:40 PM 54.0°F12.2°C 53.4°F11.9°C 98% Calm Calm -- 29.89 in1012.2 mb - 0.00 in0.0 mm 0.19 in4.8 mm
08:35 PM 54.0°F12.2°C 53.4°F11.9°C 98% Calm Calm -- 29.89 in1012.2 mb - 0.00 in0.0 mm 0.19 in4.8 mm
08:30 PM 54.0°F12.2°C 53.5°F11.9°C 98% Calm Calm -- 29.89 in1012.2 mb - 0.00 in0.0 mm 0.19 in4.8 mm
08:25 PM 54.1°F12.3°C 53.3°F11.8°C 97% Calm Calm -- 29.89 in1012.2 mb - 0.00 in0.0 mm 0.19 in4.8 mm
08:20 PM 54.1°F12.3°C 53.3°F11.8°C 97% Calm Calm -- 29.88 in1011.9 mb - 0.00 in0.0 mm 0.19 in4.8 mm
08:15 PM 54.3°F12.4°C 53.4°F11.9°C 97% Calm Calm -- 29.88 in1011.9 mb - 0.00 in0.0 mm 0.19 in4.8 mm
08:10 PM 54.4°F12.4°C 53.6°F12.0°C 97% Calm Calm -- 29.88 in1011.9 mb - 0.00 in0.0 mm 0.19 in4.8 mm
08:00 PM 54.6°F12.6°C 53.8°F12.1°C 97% Calm Calm -- 29.88 in1011.9 mb - 0.00 in0.0 mm 0.19 in4.8 mm
07:55 PM 54.6°F12.6°C 53.8°F12.1°C 97% Calm Calm -- 29.88 in1011.9 mb - 0.00 in0.0 mm 0.19 in4.8 mm
07:50 PM 54.8°F12.7°C 54.0°F12.2°C 97% Calm Calm -- 29.88 in1011.9 mb - 0.00 in0.0 mm 0.19 in4.8 mm
07:45 PM 55.0°F12.8°C 54.2°F12.3°C 97% Calm Calm -- 29.87 in1011.5 mb - 0.00 in0.0 mm 0.19 in4.8 mm
07:40 PM 55.2°F12.9°C 54.4°F12.4°C 97% Calm Calm -- 29.87 in1011.5 mb - 0.00 in0.0 mm 0.19 in4.8 mm
07:35 PM 55.4°F13.0°C 54.6°F12.6°C 97% Calm Calm -- 29.87 in1011.5 mb - 0.00 in0.0 mm 0.19 in4.8 mm
07:30 PM 55.6°F13.1°C 54.8°F12.7°C 97% Calm Calm -- 29.87 in1011.5 mb - 0.00 in0.0 mm 0.19 in4.8 mm
07:25 PM 55.7°F13.2°C 54.9°F12.7°C 97% Calm Calm -- 29.87 in1011.5 mb - 0.00 in0.0 mm 0.19 in4.8 mm
07:20 PM 55.7°F13.2°C 54.9°F12.7°C 97% Calm Calm -- 29.87 in1011.5 mb - 0.00 in0.0 mm 0.19 in4.8 mm
07:15 PM 55.9°F13.3°C 55.0°F12.8°C 97% Calm Calm -- 29.87 in1011.5 mb - 0.00 in0.0 mm 0.19 in4.8 mm
07:10 PM 55.9°F13.3°C 55.1°F12.8°C 97% Calm Calm -- 29.87 in1011.5 mb - 0.00 in0.0 mm 0.19 in4.8 mm
07:00 PM 55.9°F13.3°C 55.0°F12.8°C 97% Calm Calm -- 29.88 in1011.9 mb - 0.00 in0.0 mm 0.19 in4.8 mm
06:55 PM 55.9°F13.3°C 55.1°F12.8°C 97% Calm Calm -- 29.88 in1011.9 mb - 0.00 in0.0 mm 0.19 in4.8 mm
06:50 PM 56.0°F13.3°C 55.2°F12.9°C 97% Calm Calm -- 29.88 in1011.9 mb - 0.00 in0.0 mm 0.19 in4.8 mm
06:45 PM 56.0°F13.3°C 55.2°F12.9°C 97% Calm Calm -- 29.88 in1011.9 mb - 0.00 in0.0 mm 0.19 in4.8 mm
06:40 PM 56.0°F13.3°C 55.2°F12.9°C 97% Calm Calm -- 29.88 in1011.9 mb - 0.00 in0.0 mm 0.19 in4.8 mm
06:35 PM 56.1°F13.4°C 55.3°F12.9°C 97% Calm Calm -- 29.88 in1011.9 mb - 0.00 in0.0 mm 0.19 in4.8 mm
06:30 PM 56.2°F13.4°C 55.4°F13.0°C 97% Calm Calm -- 29.88 in1011.9 mb - 0.00 in0.0 mm 0.19 in4.8 mm
06:25 PM 56.4°F13.6°C 55.6°F13.1°C 97% Calm Calm -- 29.88 in1011.9 mb - 0.01 in0.3 mm 0.19 in4.8 mm
06:20 PM 56.4°F13.6°C 55.6°F13.1°C 97% Calm Calm -- 29.88 in1011.9 mb - 0.00 in0.0 mm 0.18 in4.6 mm
06:15 PM 56.4°F13.6°C 55.6°F13.1°C 97% Calm Calm -- 29.89 in1012.2 mb - 0.00 in0.0 mm 0.18 in4.6 mm
06:10 PM 56.5°F13.6°C 55.7°F13.2°C 97% Calm Calm -- 29.88 in1011.9 mb - 0.00 in0.0 mm 0.18 in4.6 mm
06:00 PM 56.6°F13.7°C 55.8°F13.2°C 97% Calm Calm -- 29.88 in1011.9 mb - 0.00 in0.0 mm 0.18 in4.6 mm
05:55 PM 56.4°F13.6°C 55.3°F12.9°C 96% Calm Calm -- 29.88 in1011.9 mb - 0.00 in0.0 mm 0.18 in4.6 mm
05:50 PM 56.4°F13.6°C 55.6°F13.1°C 97% Calm Calm -- 29.88 in1011.9 mb - 0.00 in0.0 mm 0.18 in4.6 mm
05:45 PM 56.3°F13.5°C 55.2°F12.9°C 96% Calm Calm -- 29.88 in1011.9 mb - 0.00 in0.0 mm 0.18 in4.6 mm
05:40 PM 56.4°F13.6°C 55.3°F12.9°C 96% Calm Calm -- 29.88 in1011.9 mb - 0.00 in0.0 mm 0.18 in4.6 mm
05:35 PM 56.5°F13.6°C 55.4°F13.0°C 96% Calm Calm -- 29.88 in1011.9 mb - 0.00 in0.0 mm 0.18 in4.6 mm
05:30 PM 56.5°F13.6°C 55.4°F13.0°C 96% Calm Calm -- 29.88 in1011.9 mb - 0.01 in0.3 mm 0.18 in4.6 mm
05:25 PM 56.4°F13.6°C 55.3°F12.9°C 96% Calm Calm -- 29.87 in1011.5 mb - 0.00 in0.0 mm 0.17 in4.3 mm
05:20 PM 56.4°F13.6°C 55.3°F12.9°C 96% Calm Calm -- 29.87 in1011.5 mb - 0.00 in0.0 mm 0.17 in4.3 mm
05:15 PM 56.4°F13.6°C 55.3°F12.9°C 96% Calm Calm -- 29.87 in1011.5 mb - 0.00 in0.0 mm 0.17 in4.3 mm
05:10 PM 56.4°F13.6°C 55.2°F12.9°C 96% Calm Calm -- 29.87 in1011.5 mb - 0.01 in0.3 mm 0.17 in4.3 mm
05:00 PM 56.3°F13.5°C 55.2°F12.9°C 96% Calm Calm -- 29.86 in1011.2 mb - 0.00 in0.0 mm 0.16 in4.1 mm
04:55 PM 56.2°F13.4°C 55.1°F12.8°C 96% Calm Calm -- 29.86 in1011.2 mb - 0.00 in0.0 mm 0.16 in4.1 mm
04:50 PM 56.2°F13.4°C 55.1°F12.8°C 96% Calm Calm -- 29.86 in1011.2 mb - 0.00 in0.0 mm 0.16 in4.1 mm
04:45 PM 56.1°F13.4°C 55.0°F12.8°C 96% Calm Calm -- 29.86 in1011.2 mb - 0.00 in0.0 mm 0.16 in4.1 mm
04:40 PM 56.2°F13.4°C 55.1°F12.8°C 96% Calm Calm -- 29.85 in1010.8 mb - 0.00 in0.0 mm 0.16 in4.1 mm
04:35 PM 56.2°F13.4°C 55.1°F12.8°C 96% Calm Calm -- 29.85 in1010.8 mb - 0.01 in0.3 mm 0.16 in4.1 mm
04:30 PM 56.4°F13.6°C 55.3°F12.9°C 96% Calm Calm -- 29.85 in1010.8 mb - 0.00 in0.0 mm 0.15 in3.8 mm
04:25 PM 56.5°F13.6°C 55.4°F13.0°C 96% Calm Calm -- 29.85 in1010.8 mb - 0.01 in0.3 mm 0.15 in3.8 mm
04:20 PM 56.6°F13.7°C 55.5°F13.1°C 96% Calm Calm -- 29.85 in1010.8 mb - 0.00 in0.0 mm 0.14 in3.6 mm
04:15 PM 56.6°F13.7°C 55.5°F13.1°C 96% Calm Calm -- 29.85 in1010.8 mb - 0.00 in0.0 mm 0.14 in3.6 mm
04:10 PM 56.5°F13.6°C 55.1°F12.8°C 95% Calm Calm -- 29.85 in1010.8 mb - 0.01 in0.3 mm 0.14 in3.6 mm
04:00 PM 56.4°F13.6°C 55.0°F12.8°C 95% Calm Calm -- 29.84 in1010.5 mb - 0.00 in0.0 mm 0.13 in3.3 mm
03:55 PM 56.4°F13.6°C 55.0°F12.8°C 95% Calm Calm -- 29.85 in1010.8 mb - 0.00 in0.0 mm 0.13 in3.3 mm
03:50 PM 56.4°F13.6°C 55.0°F12.8°C 95% Calm Calm -- 29.84 in1010.5 mb - 0.00 in0.0 mm 0.13 in3.3 mm
03:45 PM 56.4°F13.6°C 55.0°F12.8°C 95% Calm Calm -- 29.84 in1010.5 mb - 0.00 in0.0 mm 0.13 in3.3 mm
03:40 PM 56.6°F13.7°C 55.2°F12.9°C 95% Calm Calm -- 29.84 in1010.5 mb - 0.01 in0.3 mm 0.13 in3.3 mm
03:35 PM 56.6°F13.7°C 55.1°F12.8°C 95% Calm Calm -- 29.84 in1010.5 mb - 0.00 in0.0 mm 0.12 in3.0 mm
03:30 PM 56.6°F13.7°C 55.5°F13.1°C 96% Calm Calm -- 29.84 in1010.5 mb - 0.00 in0.0 mm 0.12 in3.0 mm
03:25 PM 56.7°F13.7°C 55.3°F12.9°C 95% Calm Calm -- 29.84 in1010.5 mb - 0.00 in0.0 mm 0.12 in3.0 mm
03:20 PM 56.7°F13.7°C 55.3°F12.9°C 95% Calm Calm -- 29.84 in1010.5 mb - 0.00 in0.0 mm 0.12 in3.0 mm
03:15 PM 56.8°F13.8°C 55.4°F13.0°C 95% Calm Calm -- 29.84 in1010.5 mb - 0.01 in0.3 mm 0.12 in3.0 mm
03:10 PM 56.8°F13.8°C 55.4°F13.0°C 95% Calm Calm -- 29.84 in1010.5 mb - 0.00 in0.0 mm 0.11 in2.8 mm
03:00 PM 56.6°F13.7°C 54.6°F12.6°C 93% Calm Calm -- 29.85 in1010.8 mb - 0.00 in0.0 mm 0.11 in2.8 mm
02:55 PM 56.9°F13.8°C 54.9°F12.7°C 93% Calm Calm -- 29.84 in1010.5 mb - 0.00 in0.0 mm 0.11 in2.8 mm
02:50 PM 57.0°F13.9°C 55.0°F12.8°C 93% Calm Calm -- 29.85 in1010.8 mb - 0.00 in0.0 mm 0.11 in2.8 mm
02:45 PM 56.9°F13.8°C 54.9°F12.7°C 93% Calm Calm -- 29.85 in1010.8 mb - 0.00 in0.0 mm 0.11 in2.8 mm
02:40 PM 57.0°F13.9°C 55.3°F12.9°C 94% Calm Calm -- 29.84 in1010.5 mb - 0.01 in0.3 mm 0.11 in2.8 mm
02:35 PM 57.0°F13.9°C 55.2°F12.9°C 94% Calm Calm -- 29.84 in1010.5 mb - 0.00 in0.0 mm 0.10 in2.5 mm
02:30 PM 56.8°F13.8°C 55.1°F12.8°C 94% Calm Calm -- 29.84 in1010.5 mb - 0.00 in0.0 mm 0.10 in2.5 mm
02:25 PM 56.8°F13.8°C 55.1°F12.8°C 94% Calm Calm -- 29.84 in1010.5 mb - 0.00 in0.0 mm 0.10 in2.5 mm
02:20 PM 56.8°F13.8°C 55.4°F13.0°C 95% Calm Calm -- 29.84 in1010.5 mb - 0.00 in0.0 mm 0.10 in2.5 mm
02:15 PM 56.7°F13.7°C 55.0°F12.8°C 94% Calm Calm -- 29.84 in1010.5 mb - 0.00 in0.0 mm 0.10 in2.5 mm
02:10 PM 56.7°F13.7°C 55.3°F12.9°C 95% Calm Calm -- 29.84 in1010.5 mb - 0.00 in0.0 mm 0.10 in2.5 mm
02:00 PM 56.5°F13.6°C 55.1°F12.8°C 95% Calm Calm -- 29.85 in1010.8 mb - 0.01 in0.3 mm 0.10 in2.5 mm
01:55 PM 56.4°F13.6°C 54.7°F12.6°C 94% Calm Calm -- 29.85 in1010.8 mb - 0.00 in0.0 mm 0.09 in2.3 mm
01:50 PM 56.3°F13.5°C 54.3°F12.4°C 93% Calm Calm -- 29.85 in1010.8 mb - 0.01 in0.3 mm 0.09 in2.3 mm
01:45 PM 56.5°F13.6°C 54.5°F12.5°C 93% Calm Calm -- 29.85 in1010.8 mb - 0.01 in0.3 mm 0.08 in2.0 mm
01:40 PM 56.3°F13.5°C 54.0°F12.2°C 92% Calm Calm -- 29.86 in1011.2 mb - 0.01 in0.3 mm 0.08 in2.0 mm
01:35 PM 56.2°F13.4°C 54.2°F12.3°C 93% Calm Calm -- 29.86 in1011.2 mb - 0.01 in0.3 mm 0.07 in1.8 mm
01:30 PM 56.2°F13.4°C 53.9°F12.2°C 92% Calm Calm -- 29.85 in1010.8 mb - 0.00 in0.0 mm 0.06 in1.5 mm
01:25 PM 56.2°F13.4°C 53.9°F12.2°C 92% Calm Calm -- 29.85 in1010.8 mb - 0.00 in0.0 mm 0.06 in1.5 mm
01:20 PM 56.2°F13.4°C 53.9°F12.2°C 92% Calm Calm -- 29.85 in1010.8 mb - 0.00 in0.0 mm 0.06 in1.5 mm
01:15 PM 56.5°F13.6°C 54.2°F12.3°C 92% 1.2 mph NE1.9 kmh NE 1.2 mph1.9 kmh 29.86 in1011.2 mb - 0.00 in0.0 mm 0.06 in1.5 mm
01:10 PM 56.8°F13.8°C 54.5°F12.5°C 92% Calm Calm -- 29.86 in1011.2 mb - 0.00 in0.0 mm 0.06 in1.5 mm
01:00 PM 57.1°F13.9°C 53.0°F11.7°C 86% Calm Calm -- 29.88 in1011.9 mb - 0.00 in0.0 mm 0.06 in1.5 mm
12:55 PM 57.3°F14.1°C 53.5°F11.9°C 87% 1.2 mph S1.9 kmh S 3.5 mph5.6 kmh 29.88 in1011.9 mb - 0.00 in0.0 mm 0.06 in1.5 mm
12:50 PM 57.5°F14.2°C 54.3°F12.4°C 89% 1.2 mph SSE1.9 kmh SSE 2.3 mph3.7 kmh 29.87 in1011.5 mb - 0.00 in0.0 mm 0.06 in1.5 mm
12:45 PM 57.5°F14.2°C 53.7°F12.1°C 87% Calm Calm 1.2 mph1.9 kmh 29.87 in1011.5 mb - 0.00 in0.0 mm 0.06 in1.5 mm
12:40 PM 57.5°F14.2°C 54.0°F12.2°C 88% Calm Calm 1.2 mph1.9 kmh 29.86 in1011.2 mb - 0.00 in0.0 mm 0.06 in1.5 mm
12:35 PM 57.5°F14.2°C 54.3°F12.4°C 89% Calm Calm -- 29.86 in1011.2 mb - 0.00 in0.0 mm 0.06 in1.5 mm
12:30 PM 57.4°F14.1°C 54.2°F12.3°C 89% Calm Calm -- 29.86 in1011.2 mb - 0.00 in0.0 mm 0.06 in1.5 mm
12:25 PM 57.3°F14.1°C 54.3°F12.4°C 90% Calm Calm -- 29.86 in1011.2 mb - 0.00 in0.0 mm 0.06 in1.5 mm
12:20 PM 57.1°F13.9°C 54.2°F12.3°C 90% Calm Calm 1.2 mph1.9 kmh 29.86 in1011.2 mb - 0.00 in0.0 mm 0.06 in1.5 mm
12:15 PM 57.1°F13.9°C 53.9°F12.2°C 89% Calm Calm 1.2 mph1.9 kmh 29.86 in1011.2 mb - 0.00 in0.0 mm 0.06 in1.5 mm
12:10 PM 57.1°F13.9°C 54.2°F12.3°C 90% Calm Calm 1.2 mph1.9 kmh 29.87 in1011.5 mb - 0.00 in0.0 mm 0.06 in1.5 mm
12:00 PM 57.2°F14.0°C 54.3°F12.4°C 90% Calm Calm -- 29.87 in1011.5 mb - 0.00 in0.0 mm 0.06 in1.5 mm
11:55 AM 57.0°F13.9°C 54.4°F12.4°C 91% 1.2 mph SSE1.9 kmh SSE 2.3 mph3.7 kmh 29.87 in1011.5 mb - 0.00 in0.0 mm 0.06 in1.5 mm
11:50 AM 57.2°F14.0°C 55.8°F13.2°C 95% Calm Calm 2.3 mph3.7 kmh 29.86 in1011.2 mb - 0.00 in0.0 mm 0.06 in1.5 mm
11:45 AM 56.8°F13.8°C 55.1°F12.8°C 94% 1.2 mph NNE1.9 kmh NNE 2.3 mph3.7 kmh 29.86 in1011.2 mb - 0.00 in0.0 mm 0.06 in1.5 mm
11:40 AM 56.9°F13.8°C 54.9°F12.7°C 93% 1.2 mph NNE1.9 kmh NNE 2.3 mph3.7 kmh 29.87 in1011.5 mb - 0.00 in0.0 mm 0.06 in1.5 mm
11:35 AM 56.9°F13.8°C 54.9°F12.7°C 93% Calm Calm -- 29.88 in1011.9 mb - 0.00 in0.0 mm 0.06 in1.5 mm
11:30 AM 56.7°F13.7°C 55.0°F12.8°C 94% 1.2 mph S1.9 kmh S 2.3 mph3.7 kmh 29.87 in1011.5 mb - 0.00 in0.0 mm 0.06 in1.5 mm
11:25 AM 56.8°F13.8°C 55.3°F12.9°C 95% 1.2 mph E1.9 kmh E 2.3 mph3.7 kmh 29.86 in1011.2 mb - 0.00 in0.0 mm 0.06 in1.5 mm
11:20 AM 57.0°F13.9°C 55.6°F13.1°C 95% 1.2 mph NE1.9 kmh NE 2.3 mph3.7 kmh 29.86 in1011.2 mb - 0.00 in0.0 mm 0.06 in1.5 mm
11:15 AM 56.8°F13.8°C 55.4°F13.0°C 95% 1.2 mph ESE1.9 kmh ESE 2.3 mph3.7 kmh 29.86 in1011.2 mb - 0.00 in0.0 mm 0.06 in1.5 mm
11:10 AM 56.9°F13.8°C 55.5°F13.1°C 95% Calm Calm -- 29.87 in1011.5 mb - 0.00 in0.0 mm 0.06 in1.5 mm
11:00 AM 56.7°F13.7°C 55.0°F12.8°C 94% Calm Calm 1.2 mph1.9 kmh 29.88 in1011.9 mb - 0.00 in0.0 mm 0.06 in1.5 mm
10:55 AM 56.9°F13.8°C 55.5°F13.1°C 95% 1.2 mph SSE1.9 kmh SSE 3.5 mph5.6 kmh 29.89 in1012.2 mb - 0.01 in0.3 mm 0.06 in1.5 mm
10:50 AM 57.0°F13.9°C 55.6°F13.1°C 95% Calm Calm 2.3 mph3.7 kmh 29.89 in1012.2 mb - 0.00 in0.0 mm 0.05 in1.3 mm
10:45 AM 56.9°F13.8°C 55.5°F13.1°C 95% 1.2 mph ESE1.9 kmh ESE 1.2 mph1.9 kmh 29.89 in1012.2 mb - 0.00 in0.0 mm 0.05 in1.3 mm
10:40 AM 57.1°F13.9°C 55.6°F13.1°C 95% Calm Calm 2.3 mph3.7 kmh 29.89 in1012.2 mb - 0.00 in0.0 mm 0.05 in1.3 mm
10:35 AM 57.4°F14.1°C 56.0°F13.3°C 95% Calm Calm 2.3 mph3.7 kmh 29.89 in1012.2 mb - 0.00 in0.0 mm 0.05 in1.3 mm
10:30 AM 57.6°F14.2°C 56.5°F13.6°C 96% Calm Calm -- 29.89 in1012.2 mb - 0.00 in0.0 mm 0.05 in1.3 mm
10:25 AM 57.5°F14.2°C 56.1°F13.4°C 95% Calm Calm 1.2 mph1.9 kmh 29.90 in1012.5 mb - 0.00 in0.0 mm 0.05 in1.3 mm
10:20 AM 57.4°F14.1°C 56.0°F13.3°C 95% Calm Calm -- 29.90 in1012.5 mb - 0.01 in0.3 mm 0.05 in1.3 mm
10:15 AM 57.4°F14.1°C 56.0°F13.3°C 95% Calm Calm -- 29.90 in1012.5 mb - 0.00 in0.0 mm 0.04 in1.0 mm
10:10 AM 57.5°F14.2°C 56.4°F13.6°C 96% Calm Calm -- 29.90 in1012.5 mb - 0.00 in0.0 mm 0.04 in1.0 mm
10:00 AM 57.5°F14.2°C 56.4°F13.6°C 96% Calm Calm -- 29.90 in1012.5 mb - 0.00 in0.0 mm 0.04 in1.0 mm
09:55 AM 57.3°F14.1°C 56.1°F13.4°C 96% Calm Calm -- 29.90 in1012.5 mb - 0.00 in0.0 mm 0.04 in1.0 mm
09:50 AM 57.1°F13.9°C 56.0°F13.3°C 96% Calm Calm -- 29.90 in1012.5 mb - 0.00 in0.0 mm 0.04 in1.0 mm
09:45 AM 57.2°F14.0°C 56.1°F13.4°C 96% Calm Calm -- 29.89 in1012.2 mb - 0.00 in0.0 mm 0.04 in1.0 mm
09:40 AM 57.2°F14.0°C 56.3°F13.5°C 97% Calm Calm -- 29.90 in1012.5 mb - 0.00 in0.0 mm 0.04 in1.0 mm
09:35 AM 57.2°F14.0°C 56.4°F13.6°C 97% Calm Calm -- 29.90 in1012.5 mb - 0.00 in0.0 mm 0.04 in1.0 mm
09:30 AM 56.9°F13.8°C 56.1°F13.4°C 97% Calm Calm -- 29.89 in1012.2 mb - 0.00 in0.0 mm 0.04 in1.0 mm
09:25 AM 56.8°F13.8°C 56.0°F13.3°C 97% Calm Calm -- 29.90 in1012.5 mb - 0.00 in0.0 mm 0.04 in1.0 mm
09:20 AM 56.6°F13.7°C 55.5°F13.1°C 96% Calm Calm -- 29.90 in1012.5 mb - 0.00 in0.0 mm 0.04 in1.0 mm
09:15 AM 56.8°F13.8°C 55.9°F13.3°C 97% Calm Calm 1.2 mph1.9 kmh 29.90 in1012.5 mb - 0.00 in0.0 mm 0.04 in1.0 mm
09:10 AM 56.8°F13.8°C 55.9°F13.3°C 97% Calm Calm -- 29.90 in1012.5 mb - 0.00 in0.0 mm 0.04 in1.0 mm
09:00 AM 56.6°F13.7°C 55.8°F13.2°C 97% Calm Calm -- 29.90 in1012.5 mb - 0.00 in0.0 mm 0.04 in1.0 mm
08:55 AM 56.6°F13.7°C 55.8°F13.2°C 97% Calm Calm -- 29.90 in1012.5 mb - 0.00 in0.0 mm 0.04 in1.0 mm
08:50 AM 56.5°F13.6°C 55.7°F13.2°C 97% Calm Calm 1.2 mph1.9 kmh 29.90 in1012.5 mb - 0.00 in0.0 mm 0.04 in1.0 mm
08:45 AM 56.4°F13.6°C 55.6°F13.1°C 97% Calm Calm -- 29.90 in1012.5 mb - 0.00 in0.0 mm 0.04 in1.0 mm
08:40 AM 56.4°F13.6°C 55.6°F13.1°C 97% Calm Calm -- 29.90 in1012.5 mb - 0.00 in0.0 mm 0.04 in1.0 mm
08:35 AM 56.2°F13.4°C 55.4°F13.0°C 97% Calm Calm -- 29.90 in1012.5 mb - 0.01 in0.3 mm 0.04 in1.0 mm
08:30 AM 56.1°F13.4°C 55.3°F12.9°C 97% Calm Calm -- 29.90 in1012.5 mb - 0.00 in0.0 mm 0.03 in0.8 mm
08:25 AM 56.0°F13.3°C 55.2°F12.9°C 97% Calm Calm -- 29.90 in1012.5 mb - 0.00 in0.0 mm 0.03 in0.8 mm
08:20 AM 55.9°F13.3°C 55.1°F12.8°C 97% Calm Calm -- 29.90 in1012.5 mb - 0.00 in0.0 mm 0.03 in0.8 mm
08:15 AM 55.8°F13.2°C 55.0°F12.8°C 97% Calm Calm -- 29.90 in1012.5 mb - 0.00 in0.0 mm 0.03 in0.8 mm
08:10 AM 55.7°F13.2°C 54.9°F12.7°C 97% Calm Calm -- 29.90 in1012.5 mb - 0.00 in0.0 mm 0.03 in0.8 mm
08:00 AM 55.9°F13.3°C 55.1°F12.8°C 97% Calm Calm -- 29.90 in1012.5 mb - 0.00 in0.0 mm 0.03 in0.8 mm
07:55 AM 55.9°F13.3°C 55.1°F12.8°C 97% Calm Calm -- 29.89 in1012.2 mb - 0.00 in0.0 mm 0.03 in0.8 mm
07:50 AM 55.9°F13.3°C 55.0°F12.8°C 97% Calm Calm -- 29.89 in1012.2 mb - 0.00 in0.0 mm 0.03 in0.8 mm
07:45 AM 55.7°F13.2°C 54.9°F12.7°C 97% Calm Calm -- 29.89 in1012.2 mb - 0.00 in0.0 mm 0.03 in0.8 mm
07:40 AM 55.7°F13.2°C 54.9°F12.7°C 97% Calm Calm -- 29.89 in1012.2 mb - 0.00 in0.0 mm 0.03 in0.8 mm
07:35 AM 55.7°F13.2°C 54.9°F12.7°C 97% Calm Calm -- 29.89 in1012.2 mb - 0.00 in0.0 mm 0.03 in0.8 mm
07:30 AM 55.6°F13.1°C 54.8°F12.7°C 97% Calm Calm -- 29.89 in1012.2 mb - 0.00 in0.0 mm 0.03 in0.8 mm
07:25 AM 55.7°F13.2°C 54.9°F12.7°C 97% Calm Calm -- 29.89 in1012.2 mb - 0.00 in0.0 mm 0.03 in0.8 mm
07:20 AM 55.7°F13.2°C 54.8°F12.7°C 97% Calm Calm -- 29.89 in1012.2 mb - 0.01 in0.3 mm 0.03 in0.8 mm
07:15 AM 55.7°F13.2°C 54.9°F12.7°C 97% Calm Calm -- 29.89 in1012.2 mb - 0.00 in0.0 mm 0.02 in0.5 mm
07:10 AM 55.7°F13.2°C 54.8°F12.7°C 97% Calm Calm -- 29.89 in1012.2 mb - 0.00 in0.0 mm 0.02 in0.5 mm
07:00 AM 55.6°F13.1°C 54.5°F12.5°C 96% Calm Calm -- 29.89 in1012.2 mb - 0.00 in0.0 mm 0.02 in0.5 mm
06:55 AM 55.6°F13.1°C 54.5°F12.5°C 96% Calm Calm -- 29.89 in1012.2 mb - 0.00 in0.0 mm 0.02 in0.5 mm
06:50 AM 55.7°F13.2°C 54.6°F12.6°C 96% Calm Calm -- 29.89 in1012.2 mb - 0.01 in0.3 mm 0.02 in0.5 mm
06:45 AM 55.7°F13.2°C 54.6°F12.6°C 96% Calm Calm -- 29.89 in1012.2 mb - 0.00 in0.0 mm 0.01 in0.3 mm
06:40 AM 55.7°F13.2°C 54.6°F12.6°C 96% Calm Calm -- 29.89 in1012.2 mb - 0.00 in0.0 mm 0.01 in0.3 mm
06:35 AM 55.7°F13.2°C 54.6°F12.6°C 96% Calm Calm -- 29.88 in1011.9 mb - 0.00 in0.0 mm 0.01 in0.3 mm
06:30 AM 55.6°F13.1°C 54.4°F12.4°C 96% Calm Calm -- 29.88 in1011.9 mb - 0.00 in0.0 mm 0.01 in0.3 mm
06:25 AM 55.5°F13.1°C 54.4°F12.4°C 96% Calm Calm -- 29.88 in1011.9 mb - 0.00 in0.0 mm 0.01 in0.3 mm
06:20 AM 55.4°F13.0°C 54.3°F12.4°C 96% Calm Calm -- 29.88 in1011.9 mb - 0.01 in0.3 mm 0.01 in0.3 mm
06:15 AM 55.4°F13.0°C 54.3°F12.4°C 96% Calm Calm -- 29.87 in1011.5 mb - 0.00 in0.0 mm 0.00 in0.0 mm
06:10 AM 55.4°F13.0°C 54.3°F12.4°C 96% Calm Calm -- 29.87 in1011.5 mb - 0.00 in0.0 mm 0.00 in0.0 mm
06:00 AM 55.3°F12.9°C 54.2°F12.3°C 96% Calm Calm -- 29.86 in1011.2 mb - 0.00 in0.0 mm 0.00 in0.0 mm
05:55 AM 55.2°F12.9°C 53.8°F12.1°C 95% Calm Calm -- 29.86 in1011.2 mb - 0.00 in0.0 mm 0.00 in0.0 mm
05:50 AM 55.3°F12.9°C 53.9°F12.2°C 95% Calm Calm -- 29.86 in1011.2 mb - 0.00 in0.0 mm 0.00 in0.0 mm
05:45 AM 55.3°F12.9°C 53.9°F12.2°C 95% Calm Calm -- 29.86 in1011.2 mb - 0.00 in0.0 mm 0.00 in0.0 mm
05:40 AM 55.4°F13.0°C 54.0°F12.2°C 95% Calm Calm -- 29.86 in1011.2 mb - 0.00 in0.0 mm 0.00 in0.0 mm
05:35 AM 55.4°F13.0°C 54.0°F12.2°C 95% Calm Calm -- 29.85 in1010.8 mb - 0.00 in0.0 mm 0.00 in0.0 mm
05:30 AM 55.4°F13.0°C 54.0°F12.2°C 95% Calm Calm -- 29.85 in1010.8 mb - 0.00 in0.0 mm 0.00 in0.0 mm
05:25 AM 55.5°F13.1°C 54.1°F12.3°C 95% Calm Calm -- 29.85 in1010.8 mb - 0.00 in0.0 mm 0.00 in0.0 mm
05:20 AM 55.5°F13.1°C 54.1°F12.3°C 95% Calm Calm -- 29.84 in1010.5 mb - 0.00 in0.0 mm 0.00 in0.0 mm
05:15 AM 55.6°F13.1°C 54.2°F12.3°C 95% Calm Calm -- 29.84 in1010.5 mb - 0.00 in0.0 mm 0.00 in0.0 mm
05:10 AM 55.5°F13.1°C 54.1°F12.3°C 95% Calm Calm -- 29.84 in1010.5 mb - 0.00 in0.0 mm 0.00 in0.0 mm
05:00 AM 55.8°F13.2°C 54.4°F12.4°C 95% Calm Calm -- 29.84 in1010.5 mb - 0.00 in0.0 mm 0.00 in0.0 mm
04:55 AM 55.8°F13.2°C 54.4°F12.4°C 95% Calm Calm -- 29.84 in1010.5 mb - 0.00 in0.0 mm 0.00 in0.0 mm
04:50 AM 55.7°F13.2°C 54.3°F12.4°C 95% Calm Calm -- 29.84 in1010.5 mb - 0.00 in0.0 mm 0.00 in0.0 mm
04:45 AM 55.8°F13.2°C 54.4°F12.4°C 95% Calm Calm -- 29.84 in1010.5 mb - 0.00 in0.0 mm 0.00 in0.0 mm
04:40 AM 55.8°F13.2°C 54.4°F12.4°C 95% Calm Calm -- 29.84 in1010.5 mb - 0.00 in0.0 mm 0.00 in0.0 mm
04:35 AM 55.8°F13.2°C 54.4°F12.4°C 95% Calm Calm -- 29.84 in1010.5 mb - 0.00 in0.0 mm 0.00 in0.0 mm
04:30 AM 55.9°F13.3°C 54.5°F12.5°C 95% Calm Calm -- 29.84 in1010.5 mb - 0.00 in0.0 mm 0.00 in0.0 mm
04:25 AM 56.0°F13.3°C 54.3°F12.4°C 94% Calm Calm -- 29.85 in1010.8 mb - 0.00 in0.0 mm 0.00 in0.0 mm
04:20 AM 56.0°F13.3°C 54.3°F12.4°C 94% Calm Calm -- 29.85 in1010.8 mb - 0.00 in0.0 mm 0.00 in0.0 mm
04:15 AM 56.0°F13.3°C 54.3°F12.4°C 94% Calm Calm -- 29.85 in1010.8 mb - 0.00 in0.0 mm 0.00 in0.0 mm
04:10 AM 56.0°F13.3°C 54.3°F12.4°C 94% Calm Calm -- 29.85 in1010.8 mb - 0.00 in0.0 mm 0.00 in0.0 mm
04:00 AM 55.8°F13.2°C 54.1°F12.3°C 94% Calm Calm -- 29.85 in1010.8 mb - 0.00 in0.0 mm 0.00 in0.0 mm
03:55 AM 55.9°F13.3°C 53.9°F12.2°C 93% Calm Calm -- 29.85 in1010.8 mb - 0.00 in0.0 mm 0.00 in0.0 mm
03:50 AM 56.1°F13.4°C 54.1°F12.3°C 93% Calm Calm -- 29.84 in1010.5 mb - 0.00 in0.0 mm 0.00 in0.0 mm
03:45 AM 56.3°F13.5°C 54.3°F12.4°C 93% Calm Calm -- 29.85 in1010.8 mb - 0.00 in0.0 mm 0.00 in0.0 mm
03:40 AM 56.4°F13.6°C 54.4°F12.4°C 93% Calm Calm -- 29.85 in1010.8 mb - 0.00 in0.0 mm 0.00 in0.0 mm
03:35 AM 56.4°F13.6°C 54.4°F12.4°C 93% Calm Calm -- 29.86 in1011.2 mb - 0.00 in0.0 mm 0.00 in0.0 mm
03:30 AM 56.4°F13.6°C 54.4°F12.4°C 93% Calm Calm -- 29.86 in1011.2 mb - 0.00 in0.0 mm 0.00 in0.0 mm
03:25 AM 56.4°F13.6°C 54.4°F12.4°C 93% Calm Calm -- 29.86 in1011.2 mb - 0.00 in0.0 mm 0.00 in0.0 mm
03:20 AM 56.4°F13.6°C 54.4°F12.4°C 93% Calm Calm -- 29.86 in1011.2 mb - 0.00 in0.0 mm 0.00 in0.0 mm
03:15 AM 56.3°F13.5°C 54.3°F12.4°C 93% Calm Calm -- 29.86 in1011.2 mb - 0.00 in0.0 mm 0.00 in0.0 mm
03:10 AM 56.4°F13.6°C 54.4°F12.4°C 93% Calm Calm -- 29.86 in1011.2 mb - 0.00 in0.0 mm 0.00 in0.0 mm
03:00 AM 56.6°F13.7°C 54.3°F12.4°C 92% Calm Calm -- 29.86 in1011.2 mb - 0.00 in0.0 mm 0.00 in0.0 mm
02:55 AM 56.6°F13.7°C 54.3°F12.4°C 92% Calm Calm -- 29.86 in1011.2 mb - 0.00 in0.0 mm 0.00 in0.0 mm
02:50 AM 56.7°F13.7°C 54.4°F12.4°C 92% Calm Calm -- 29.86 in1011.2 mb - 0.00 in0.0 mm 0.00 in0.0 mm
02:45 AM 56.7°F13.7°C 54.4°F12.4°C 92% Calm Calm -- 29.87 in1011.5 mb - 0.00 in0.0 mm 0.00 in0.0 mm
02:40 AM 56.7°F13.7°C 54.4°F12.4°C 92% Calm Calm -- 29.87 in1011.5 mb - 0.00 in0.0 mm 0.00 in0.0 mm
02:35 AM 56.8°F13.8°C 54.5°F12.5°C 92% Calm Calm -- 29.87 in1011.5 mb - 0.00 in0.0 mm 0.00 in0.0 mm
02:30 AM 56.9°F13.8°C 54.6°F12.6°C 92% Calm Calm -- 29.87 in1011.5 mb - 0.00 in0.0 mm 0.00 in0.0 mm
02:25 AM 57.1°F13.9°C 54.8°F12.7°C 92% Calm Calm -- 29.87 in1011.5 mb - 0.00 in0.0 mm 0.00 in0.0 mm
02:20 AM 57.3°F14.1°C 54.7°F12.6°C 91% Calm Calm -- 29.87 in1011.5 mb - 0.00 in0.0 mm 0.00 in0.0 mm
02:15 AM 57.3°F14.1°C 54.7°F12.6°C 91% Calm Calm -- 29.87 in1011.5 mb - 0.00 in0.0 mm 0.00 in0.0 mm
02:10 AM 57.0°F13.9°C 54.4°F12.4°C 91% Calm Calm -- 29.87 in1011.5 mb - 0.00 in0.0 mm 0.00 in0.0 mm
02:00 AM 57.1°F13.9°C 54.4°F12.4°C 91% Calm Calm -- 29.87 in1011.5 mb - 0.00 in0.0 mm 0.00 in0.0 mm
01:55 AM 57.1°F13.9°C 54.5°F12.5°C 91% Calm Calm -- 29.87 in1011.5 mb - 0.00 in0.0 mm 0.00 in0.0 mm
01:50 AM 57.3°F14.1°C 54.7°F12.6°C 91% Calm Calm -- 29.87 in1011.5 mb - 0.00 in0.0 mm 0.00 in0.0 mm
01:45 AM 57.3°F14.1°C 54.7°F12.6°C 91% Calm Calm -- 29.87 in1011.5 mb - 0.00 in0.0 mm 0.00 in0.0 mm
01:40 AM 57.5°F14.2°C 54.6°F12.6°C 90% Calm Calm -- 29.87 in1011.5 mb - 0.00 in0.0 mm 0.00 in0.0 mm
01:35 AM 57.7°F14.3°C 54.8°F12.7°C 90% Calm Calm -- 29.88 in1011.9 mb - 0.00 in0.0 mm 0.00 in0.0 mm
01:30 AM 57.7°F14.3°C 54.8°F12.7°C 90% Calm Calm -- 29.88 in1011.9 mb - 0.00 in0.0 mm 0.00 in0.0 mm
01:25 AM 57.5°F14.2°C 54.6°F12.6°C 90% Calm Calm -- 29.88 in1011.9 mb - 0.00 in0.0 mm 0.00 in0.0 mm
01:20 AM 57.4°F14.1°C 54.8°F12.7°C 91% Calm Calm -- 29.89 in1012.2 mb - 0.00 in0.0 mm 0.00 in0.0 mm
01:15 AM 57.4°F14.1°C 54.8°F12.7°C 91% Calm Calm -- 29.89 in1012.2 mb - 0.00 in0.0 mm 0.00 in0.0 mm
01:10 AM 57.4°F14.1°C 54.8°F12.7°C 91% Calm Calm -- 29.89 in1012.2 mb - 0.00 in0.0 mm 0.00 in0.0 mm
01:00 AM 57.4°F14.1°C 54.8°F12.7°C 91% Calm Calm -- 29.90 in1012.5 mb - 0.00 in0.0 mm 0.00 in0.0 mm
12:55 AM 57.6°F14.2°C 55.0°F12.8°C 91% Calm Calm -- 29.90 in1012.5 mb - 0.00 in0.0 mm 0.00 in0.0 mm
12:50 AM 57.6°F14.2°C 55.0°F12.8°C 91% Calm Calm -- 29.90 in1012.5 mb - 0.00 in0.0 mm 0.00 in0.0 mm
12:45 AM 57.5°F14.2°C 54.9°F12.7°C 91% Calm Calm -- 29.90 in1012.5 mb - 0.00 in0.0 mm 0.00 in0.0 mm
12:40 AM 57.5°F14.2°C 54.9°F12.7°C 91% Calm Calm -- 29.89 in1012.2 mb - 0.00 in0.0 mm 0.00 in0.0 mm
12:35 AM 57.6°F14.2°C 55.0°F12.8°C 91% Calm Calm -- 29.90 in1012.5 mb - 0.00 in0.0 mm 0.00 in0.0 mm
12:15 AM 58.2°F14.6°C 55.0°F12.8°C 89% Calm Calm -- 29.90 in1012.5 mb - 0.00 in0.0 mm 0.00 in0.0 mm
12:10 AM 58.3°F14.6°C 54.8°F12.7°C 88% Calm Calm -- 29.91 in1012.9 mb - 0.00 in0.0 mm 0.00 in0.0 mm
12:00 AM 58.9°F14.9°C 54.8°F12.7°C 86% Calm Calm -- 29.91 in1012.9 mb - 0.00 in0.0 mm 0.00 in0.0 mm